createdAt,value
2018-04-24T00:02:14.349Z,95.30
2018-04-24T00:04:41.829Z,95.40
2018-04-24T00:07:09.325Z,95.30
2018-04-24T00:09:36.805Z,95.30
2018-04-24T00:12:04.303Z,95.50
2018-04-24T00:14:31.782Z,95.50
2018-04-24T00:16:59.275Z,95.60
2018-04-24T00:19:26.761Z,95.70
2018-04-24T00:21:54.257Z,95.70
2018-04-24T00:24:21.741Z,95.60
2018-04-24T00:26:49.230Z,95.60
2018-04-24T00:29:16.713Z,95.60
2018-04-24T00:31:44.205Z,95.60
2018-04-24T00:34:12.454Z,95.70
2018-04-24T00:36:39.956Z,95.70
2018-04-24T00:39:08.205Z,95.70
2018-04-24T00:41:35.703Z,95.70
2018-04-24T00:44:03.946Z,95.80
2018-04-24T00:46:31.452Z,95.80
2018-04-24T00:48:58.925Z,96.00
2018-04-24T00:51:26.408Z,96.00
2018-04-24T00:53:53.901Z,96.10
2018-04-24T00:56:21.373Z,96.10
2018-04-24T00:58:48.873Z,96.20
2018-04-24T01:01:16.354Z,96.10
2018-04-24T01:03:43.845Z,96.10
2018-04-24T01:06:11.330Z,96.10
2018-04-24T01:08:38.824Z,96.00
2018-04-24T01:11:06.301Z,96.00
2018-04-24T01:13:33.801Z,96.00
2018-04-24T01:16:01.282Z,96.00
2018-04-24T01:18:29.533Z,95.80
2018-04-24T01:20:57.022Z,95.80
2018-04-24T01:23:24.521Z,95.60
2018-04-24T01:25:51.997Z,95.70
2018-04-24T01:28:19.485Z,95.60
2018-04-24T01:30:46.965Z,95.50
2018-04-24T01:33:14.458Z,95.70
2018-04-24T01:35:42.705Z,95.90
2018-04-24T01:38:10.193Z,95.90
2018-04-24T01:40:37.683Z,96.00
2018-04-24T01:43:05.178Z,96.10
2018-04-24T01:45:32.653Z,96.30
2018-04-24T01:48:00.144Z,96.50
2018-04-24T01:50:27.621Z,96.60
2018-04-24T01:52:55.113Z,97.20
2018-04-24T01:55:23.357Z,97.20
2018-04-24T01:57:50.833Z,97.20
2018-04-24T02:00:18.317Z,97.40
2018-04-24T02:02:45.797Z,97.60
2018-04-24T02:05:13.297Z,97.60
2018-04-24T02:07:40.773Z,97.70
2018-04-24T02:10:08.261Z,97.90
2018-04-24T02:12:35.734Z,98.10
2018-04-24T02:15:03.233Z,98.20
2018-04-24T02:17:30.710Z,98.10
2018-04-24T02:19:58.201Z,98.20
2018-04-24T02:22:25.673Z,98.00
2018-04-24T02:24:53.218Z,98.00
2018-04-24T02:27:20.660Z,98.00
2018-04-24T02:29:48.149Z,98.00
2018-04-24T02:32:15.641Z,98.10
2018-04-24T02:34:43.133Z,98.20
2018-04-24T02:37:10.609Z,98.20
2018-04-24T02:39:38.106Z,98.30
2018-04-24T02:42:05.599Z,98.40
2018-04-24T02:44:33.110Z,98.40
2018-04-24T02:47:00.589Z,98.50
2018-04-24T02:49:28.077Z,98.50
2018-04-24T02:51:55.553Z,98.40
2018-04-24T02:54:23.088Z,98.40
2018-04-24T02:56:50.547Z,98.20
2018-04-24T02:59:18.038Z,98.20
2018-04-24T03:01:45.509Z,98.10
2018-04-24T03:04:13.015Z,98.20
2018-04-24T03:06:40.489Z,98.10
2018-04-24T03:09:07.994Z,98.30
2018-04-24T03:11:35.470Z,98.60
2018-04-24T03:14:02.949Z,98.80
2018-04-24T03:16:30.449Z,99.00
2018-04-24T03:18:57.925Z,98.90
2018-04-24T03:21:25.420Z,99.00
2018-04-24T03:23:52.898Z,99.00
2018-04-24T03:26:20.397Z,99.00
2018-04-24T03:28:47.870Z,98.90
2018-04-24T03:31:15.368Z,98.80
2018-04-24T03:33:42.845Z,98.70
2018-04-24T03:36:10.334Z,98.60
2018-04-24T03:38:37.809Z,98.60
2018-04-24T03:41:05.301Z,98.70
2018-04-24T03:43:32.773Z,98.80
2018-04-24T03:46:00.262Z,98.90
2018-04-24T03:48:27.742Z,98.90
2018-04-24T03:50:55.233Z,98.90
2018-04-24T03:53:22.707Z,98.90
2018-04-24T03:55:50.202Z,98.90
2018-04-24T03:58:17.677Z,99.00
2018-04-24T04:00:45.185Z,99.10
2018-04-24T04:03:12.659Z,99.20
2018-04-24T04:05:40.154Z,99.30
2018-04-24T04:08:07.634Z,99.20
2018-04-24T04:10:35.195Z,99.20
2018-04-24T04:13:02.672Z,99.20
2018-04-24T04:15:30.156Z,99.30
2018-04-24T04:18:10.066Z,99.40
2018-04-24T04:20:49.354Z,99.40
2018-04-24T04:23:28.501Z,99.50
2018-04-24T04:25:55.992Z,99.60
2018-04-24T04:28:23.479Z,99.60
2018-04-24T04:30:51.804Z,99.60
2018-04-24T04:33:19.281Z,99.60
2018-04-24T04:35:46.791Z,99.70
2018-04-24T04:38:14.262Z,99.70
2018-04-24T04:40:41.738Z,99.80
2018-04-24T04:43:09.225Z,99.70
2018-04-24T04:45:36.702Z,99.70
2018-04-24T04:48:04.202Z,99.70
2018-04-24T04:50:31.677Z,99.60
2018-04-24T04:52:59.193Z,99.70
2018-04-24T04:55:26.665Z,99.80
2018-04-24T04:57:54.153Z,99.80
2018-04-24T05:00:21.633Z,99.60
2018-04-24T05:02:49.137Z,99.50
2018-04-24T05:05:16.677Z,99.40
2018-04-24T05:07:44.150Z,99.30
2018-04-24T05:10:11.624Z,99.20
2018-04-24T05:12:39.121Z,99.00
2018-04-24T05:15:06.618Z,98.90
2018-04-24T05:17:34.109Z,98.90
2018-04-24T05:20:01.662Z,98.80
2018-04-24T05:22:29.101Z,98.80
2018-04-24T05:24:56.580Z,98.80
2018-04-24T05:27:24.075Z,98.90
2018-04-24T05:29:51.558Z,99.00
2018-04-24T05:32:20.070Z,99.50
2018-04-24T05:34:47.563Z,99.30
2018-04-24T05:37:15.069Z,99.60
2018-04-24T05:39:42.545Z,99.10
2018-04-24T05:42:10.038Z,98.70
2018-04-24T05:44:37.510Z,98.30
2018-04-24T05:47:05.006Z,98.00
2018-04-24T05:49:32.541Z,97.70
2018-04-24T05:52:00.033Z,97.50
2018-04-24T05:54:27.513Z,97.80
2018-04-24T05:56:55.014Z,97.30
2018-04-24T05:59:22.493Z,97.20
2018-04-24T06:01:49.974Z,97.00
2018-04-24T06:04:17.533Z,96.90
2018-04-24T06:06:45.027Z,96.90
2018-04-24T06:09:13.293Z,96.20
2018-04-24T06:11:40.769Z,96.10
2018-04-24T06:14:08.264Z,95.90
2018-04-24T06:16:35.745Z,95.60
2018-04-24T06:19:03.249Z,95.50
2018-04-24T06:21:30.752Z,95.10
2018-04-24T06:23:58.245Z,94.60
2018-04-24T06:26:25.721Z,94.10
2018-04-24T06:28:53.227Z,93.80
2018-04-24T06:31:20.704Z,93.90
2018-04-24T06:33:48.201Z,94.00
2018-04-24T06:36:15.682Z,93.80
2018-04-24T06:38:43.173Z,93.40
2018-04-24T06:41:10.677Z,93.40
2018-04-24T06:43:38.170Z,93.20
2018-04-24T06:46:05.650Z,93.00
2018-04-24T06:48:33.150Z,92.70
2018-04-24T06:51:00.625Z,92.40
2018-04-24T06:53:28.125Z,92.10
2018-04-24T06:55:55.609Z,92.20
2018-04-24T06:58:23.117Z,91.90
2018-04-24T07:00:50.662Z,91.80
2018-04-24T07:03:18.105Z,91.20
2018-04-24T07:05:45.586Z,90.60
2018-04-24T07:08:13.089Z,90.70
2018-04-24T07:10:40.565Z,90.50
2018-04-24T07:13:08.054Z,89.70
2018-04-24T07:15:35.549Z,89.60
2018-04-24T07:18:03.033Z,87.60
2018-04-24T07:20:30.537Z,86.80
2018-04-24T07:22:58.017Z,85.70
2018-04-24T07:25:25.513Z,85.00
2018-04-24T07:27:52.989Z,84.80
2018-04-24T07:30:20.492Z,82.60
2018-04-24T07:32:47.984Z,83.30
2018-04-24T07:35:15.639Z,82.00
2018-04-24T07:37:43.109Z,79.20
2018-04-24T07:40:10.613Z,77.40
2018-04-24T07:42:38.094Z,77.50
2018-04-24T07:45:05.594Z,76.00
2018-04-24T07:47:33.078Z,75.70
2018-04-24T07:50:00.586Z,74.60
2018-04-24T07:52:28.065Z,72.50
2018-04-24T07:54:55.553Z,71.60
2018-04-24T07:57:23.025Z,69.40
2018-04-24T07:59:50.521Z,69.80
2018-04-24T08:02:18.001Z,69.30
2018-04-24T08:04:45.498Z,69.80
2018-04-24T08:07:12.975Z,70.10
2018-04-24T08:09:40.468Z,67.90
2018-04-24T08:12:07.945Z,66.20
2018-04-24T08:14:35.425Z,66.10
2018-04-24T08:17:02.926Z,66.10
2018-04-24T08:19:30.401Z,66.00
2018-04-24T08:21:57.897Z,65.90
2018-04-24T08:24:25.392Z,65.90
2018-04-24T08:26:52.886Z,65.10
2018-04-24T08:29:20.361Z,65.70
2018-04-24T08:31:48.622Z,65.40
2018-04-24T08:34:16.867Z,61.60
2018-04-24T08:36:44.364Z,61.60
2018-04-24T08:39:11.846Z,62.50
2018-04-24T08:41:40.298Z,65.00
2018-04-24T08:44:07.785Z,64.60
2018-04-24T08:46:35.289Z,66.80
2018-04-24T08:49:02.766Z,65.60
2018-04-24T08:51:30.262Z,61.30
2018-04-24T08:53:57.741Z,60.60
2018-04-24T08:56:25.240Z,61.10
2018-04-24T08:58:52.729Z,61.60
2018-04-24T09:01:20.226Z,59.70
2018-04-24T09:03:47.948Z,59.90
2018-04-24T09:06:16.198Z,60.50
2018-04-24T09:08:43.685Z,60.50
2018-04-24T09:11:11.200Z,58.60
2018-04-24T09:13:38.681Z,58.60
2018-04-24T09:16:06.165Z,58.50
2018-04-24T09:18:33.668Z,58.50
2018-04-24T09:21:01.147Z,59.70
2018-04-24T09:23:28.658Z,60.10
2018-04-24T09:25:56.129Z,60.30
2018-04-24T09:28:23.620Z,58.60
2018-04-24T09:30:51.101Z,58.50
2018-04-24T09:33:18.597Z,58.20
2018-04-24T09:35:46.076Z,58.90
2018-04-24T09:38:13.565Z,59.00
2018-04-24T09:40:41.045Z,60.70
2018-04-24T09:43:08.589Z,61.20
2018-04-24T09:45:36.077Z,61.70
2018-04-24T09:48:03.570Z,62.10
2018-04-24T09:50:31.050Z,59.20
2018-04-24T09:52:58.564Z,58.00
2018-04-24T09:55:26.050Z,58.90
2018-04-24T09:57:53.551Z,58.20
2018-04-24T10:00:26.599Z,56.50
2018-04-24T10:02:54.089Z,56.60
2018-04-24T10:05:21.570Z,55.70
2018-04-24T10:07:49.171Z,54.40
2018-04-24T10:10:16.587Z,54.90
2018-04-24T10:12:44.072Z,54.60
2018-04-24T10:15:11.550Z,53.40
2018-04-24T10:17:39.037Z,53.50
2018-04-24T10:20:06.521Z,52.90
2018-04-24T10:22:33.997Z,54.90
2018-04-24T10:25:01.497Z,51.10
2018-04-24T10:27:28.969Z,51.20
2018-04-24T10:29:56.461Z,50.10
2018-04-24T10:32:23.932Z,50.60
2018-04-24T10:34:52.190Z,50.30
2018-04-24T10:37:19.661Z,50.20
2018-04-24T10:39:47.173Z,50.70
2018-04-24T10:42:14.658Z,52.00
2018-04-24T10:44:42.152Z,51.60
2018-04-24T10:47:09.637Z,49.40
2018-04-24T10:49:37.141Z,49.80
2018-04-24T10:52:04.632Z,47.50
2018-04-24T10:54:32.133Z,48.70
2018-04-24T10:56:59.606Z,50.00
2018-04-24T10:59:27.144Z,47.80
2018-04-24T11:01:54.599Z,47.40
2018-04-24T11:04:22.106Z,47.00
2018-04-24T11:06:49.577Z,48.00
2018-04-24T11:09:17.837Z,47.10
2018-04-24T11:11:45.322Z,47.00
2018-04-24T11:14:12.811Z,47.10
2018-04-24T11:16:40.299Z,47.50
2018-04-24T11:19:07.793Z,48.30
2018-04-24T11:21:35.273Z,47.60
2018-04-24T11:24:02.761Z,46.60
2018-04-24T11:26:30.245Z,45.10
2018-04-24T11:28:57.725Z,46.40
2018-04-24T11:31:25.233Z,46.30
2018-04-24T11:33:52.709Z,45.60
2018-04-24T11:36:20.205Z,47.50
2018-04-24T11:38:47.680Z,48.70
2018-04-24T11:41:15.181Z,46.70
2018-04-24T11:43:43.425Z,45.40
2018-04-24T11:46:10.919Z,45.30
2018-04-24T11:48:39.228Z,43.90
2018-04-24T11:51:06.669Z,43.90
2018-04-24T11:53:34.142Z,46.80
2018-04-24T11:56:01.650Z,45.80
2018-04-24T11:58:29.130Z,44.90
2018-04-24T12:00:56.683Z,44.50
2018-04-24T12:03:24.161Z,43.80
2018-04-24T12:05:51.658Z,45.30
2018-04-24T12:08:19.911Z,45.20
2018-04-24T12:10:47.404Z,45.20
2018-04-24T12:13:14.881Z,46.20
2018-04-24T12:15:42.424Z,44.60
2018-04-24T12:18:09.889Z,44.40
2018-04-24T12:20:37.393Z,43.80
2018-04-24T12:23:04.878Z,45.50
2018-04-24T12:25:32.373Z,45.30
2018-04-24T12:27:59.952Z,45.20
2018-04-24T12:30:27.420Z,47.10
2018-04-24T12:32:54.901Z,46.60
2018-04-24T12:35:22.402Z,46.50
2018-04-24T12:37:49.876Z,43.60
2018-04-24T12:40:17.370Z,46.70
2018-04-24T12:42:44.870Z,45.40
2018-04-24T12:45:12.351Z,44.80
2018-04-24T12:47:39.842Z,45.80
2018-04-24T12:50:07.325Z,44.90
2018-04-24T12:52:34.856Z,45.00
2018-04-24T12:55:02.333Z,44.90
2018-04-24T12:57:29.824Z,44.90
2018-04-24T12:59:57.310Z,44.70
2018-04-24T13:02:24.817Z,43.30
2018-04-24T13:04:52.305Z,44.70
2018-04-24T13:07:19.805Z,44.10
2018-04-24T13:09:47.301Z,42.50
2018-04-24T13:12:14.792Z,43.90
2018-04-24T13:14:42.272Z,41.70
2018-04-24T13:17:09.782Z,40.80
2018-04-24T13:19:37.262Z,41.70
2018-04-24T13:22:04.769Z,43.90
2018-04-24T13:24:32.260Z,45.50
2018-04-24T13:26:59.757Z,44.30
2018-04-24T13:29:27.238Z,42.10
2018-04-24T13:31:54.733Z,43.50
2018-04-24T13:34:22.213Z,43.50
2018-04-24T13:36:49.713Z,41.50
2018-04-24T13:39:17.957Z,40.70
2018-04-24T13:41:45.454Z,40.70
2018-04-24T13:44:12.931Z,43.80
2018-04-24T13:46:40.441Z,43.10
2018-04-24T13:49:08.234Z,41.30
2018-04-24T13:51:35.735Z,42.70
2018-04-24T13:54:03.245Z,39.90
2018-04-24T13:56:30.726Z,40.80
2018-04-24T13:58:58.225Z,41.40
2018-04-24T14:01:25.713Z,39.20
2018-04-24T14:03:53.211Z,39.90
2018-04-24T14:06:20.752Z,39.40
2018-04-24T14:08:48.206Z,39.80
2018-04-24T14:11:15.714Z,41.00
2018-04-24T14:13:43.221Z,41.80
2018-04-24T14:16:10.700Z,40.90
2018-04-24T14:18:38.209Z,39.10
2018-04-24T14:21:05.696Z,41.20
2018-04-24T14:23:33.256Z,42.00
2018-04-24T14:26:00.714Z,40.80
2018-04-24T14:28:28.983Z,40.10
2018-04-24T14:30:56.461Z,40.10
2018-04-24T14:33:23.963Z,39.60
2018-04-24T14:35:51.442Z,39.20
2018-04-24T14:38:18.937Z,39.40
2018-04-24T14:40:46.413Z,40.50
2018-04-24T14:43:13.913Z,42.30
2018-04-24T14:45:42.157Z,40.40
2018-04-24T14:48:09.654Z,40.20
2018-04-24T14:50:37.150Z,40.20
2018-04-24T14:53:04.641Z,41.90
2018-04-24T14:55:32.121Z,40.00
2018-04-24T14:57:59.622Z,39.20
2018-04-24T15:00:27.103Z,39.70
2018-04-24T15:02:54.598Z,40.30
2018-04-24T15:05:22.074Z,40.00
2018-04-24T15:07:49.554Z,40.50
2018-04-24T15:10:17.045Z,41.70
2018-04-24T15:12:44.526Z,41.60
2018-04-24T15:15:12.018Z,42.60
2018-04-24T15:17:39.497Z,41.20
2018-04-24T15:20:06.998Z,39.40
2018-04-24T15:22:34.484Z,40.00
2018-04-24T15:25:01.970Z,40.60
2018-04-24T15:27:29.465Z,41.20
2018-04-24T15:29:56.969Z,41.00
2018-04-24T15:32:24.449Z,40.70
2018-04-24T15:34:52.008Z,41.00
2018-04-24T15:37:19.429Z,41.00
2018-04-24T15:39:46.925Z,41.50
2018-04-24T15:42:15.164Z,41.60
2018-04-24T15:44:42.669Z,41.50
2018-04-24T15:47:10.152Z,41.40
2018-04-24T15:49:37.645Z,42.30
2018-04-24T15:52:05.129Z,41.60
2018-04-24T15:54:32.625Z,40.90
2018-04-24T15:57:00.106Z,41.70
2018-04-24T15:59:27.615Z,41.00
2018-04-24T16:01:55.102Z,42.10
2018-04-24T16:04:22.594Z,42.50
2018-04-24T16:06:50.845Z,43.00
2018-04-24T16:09:18.333Z,42.90
2018-04-24T16:11:45.804Z,42.80
2018-04-24T16:14:13.304Z,42.30
2018-04-24T16:16:40.785Z,43.20
2018-04-24T16:19:08.310Z,42.70
2018-04-24T16:21:35.785Z,42.70
2018-04-24T16:24:03.281Z,42.70
2018-04-24T16:26:30.775Z,42.20
2018-04-24T16:28:58.282Z,43.90
2018-04-24T16:31:25.777Z,43.70
2018-04-24T16:33:53.318Z,43.30
2018-04-24T16:36:21.529Z,43.40
2018-04-24T16:38:49.013Z,43.40
2018-04-24T16:41:16.513Z,42.10
2018-04-24T16:43:44.015Z,42.50
2018-04-24T16:46:12.278Z,43.40
2018-04-24T16:48:39.783Z,43.30
2018-04-24T16:51:07.281Z,43.50
2018-04-24T16:53:35.409Z,43.00
2018-04-24T16:56:02.977Z,42.30
2018-04-24T16:58:30.400Z,43.30
2018-04-24T17:00:58.666Z,44.20
2018-04-24T17:03:26.158Z,44.20
2018-04-24T17:05:53.659Z,44.40
2018-04-24T17:08:21.137Z,44.40
2018-04-24T17:10:48.642Z,44.70
2018-04-24T17:13:16.121Z,43.70
2018-04-24T17:15:43.618Z,44.20
2018-04-24T17:18:11.114Z,44.50
2018-04-24T17:20:38.633Z,44.00
2018-04-24T17:23:06.139Z,44.60
2018-04-24T17:25:33.680Z,45.30
2018-04-24T17:28:01.128Z,44.10
2018-04-24T17:30:28.613Z,44.70
2018-04-24T17:32:56.101Z,44.80
2018-04-24T17:35:23.622Z,43.90
2018-04-24T17:37:51.110Z,43.60
2018-04-24T17:40:19.357Z,44.80
2018-04-24T17:42:46.899Z,44.70
2018-04-24T17:45:14.367Z,45.00
2018-04-24T17:47:41.873Z,45.50
2018-04-24T17:50:09.349Z,45.50
2018-04-24T17:52:36.848Z,46.00
2018-04-24T17:55:04.331Z,46.40
2018-04-24T17:57:31.825Z,46.90
2018-04-24T17:59:59.301Z,46.60
2018-04-24T18:02:26.789Z,47.20
2018-04-24T18:04:54.264Z,47.50
2018-04-24T18:07:21.756Z,47.80
2018-04-24T18:09:49.233Z,47.80
2018-04-24T18:12:16.771Z,48.00
2018-04-24T18:14:44.258Z,48.30
2018-04-24T18:17:11.753Z,48.70
2018-04-24T18:19:39.240Z,48.90
2018-04-24T18:22:06.761Z,49.40
2018-04-24T18:24:34.272Z,49.40
2018-04-24T18:27:01.773Z,49.40
2018-04-24T18:29:29.245Z,49.60
2018-04-24T18:31:56.746Z,49.70
2018-04-24T18:34:24.249Z,49.80
2018-04-24T18:36:51.761Z,50.10
2018-04-24T18:39:19.285Z,51.00
2018-04-24T18:41:46.784Z,51.70
2018-04-24T18:44:14.402Z,52.30
2018-04-24T18:46:41.878Z,52.70
2018-04-24T18:49:10.137Z,53.00
2018-04-24T18:51:37.622Z,53.00
2018-04-24T18:54:05.117Z,53.90
2018-04-24T18:56:32.589Z,53.30
2018-04-24T18:59:00.085Z,53.10
2018-04-24T19:01:27.565Z,53.30
2018-04-24T19:03:55.077Z,53.80
2018-04-24T19:06:22.557Z,54.00
2018-04-24T19:08:50.054Z,54.20
2018-04-24T19:11:17.549Z,54.50
2018-04-24T19:13:45.051Z,54.70
2018-04-24T19:16:12.538Z,55.10
2018-04-24T19:18:45.589Z,55.30
2018-04-24T19:21:13.079Z,56.10
2018-04-24T19:23:40.618Z,56.40
2018-04-24T19:26:08.069Z,56.60
2018-04-24T19:28:35.567Z,57.00
2018-04-24T19:31:08.700Z,57.40
2018-04-24T19:33:36.197Z,57.80
2018-04-24T19:36:03.669Z,58.00
2018-04-24T19:38:31.173Z,58.70
2018-04-24T19:41:04.370Z,59.10
2018-04-24T19:43:31.917Z,59.60
2018-04-24T19:45:59.329Z,61.30
2018-04-24T19:48:32.373Z,61.20
2018-04-24T19:50:59.849Z,60.90
2018-04-24T19:53:27.330Z,60.80
2018-04-24T19:55:54.822Z,61.20
2018-04-24T19:58:22.295Z,62.30
2018-04-24T20:00:49.792Z,61.50
2018-04-24T20:03:18.035Z,62.30
2018-04-24T20:05:45.530Z,62.20
2018-04-24T20:08:13.009Z,62.60
2018-04-24T20:10:40.559Z,63.00
2018-04-24T20:13:08.052Z,63.10
2018-04-24T20:15:35.549Z,63.60
2018-04-24T20:18:03.035Z,63.90
2018-04-24T20:20:30.535Z,64.10
2018-04-24T20:22:58.071Z,64.20
2018-04-24T20:25:25.566Z,65.20
2018-04-24T20:27:53.039Z,65.40
2018-04-24T20:30:20.529Z,65.70
2018-04-24T20:32:48.001Z,66.20
2018-04-24T20:35:15.498Z,66.80
2018-04-24T20:37:42.977Z,67.10
2018-04-24T20:40:10.481Z,67.80
2018-04-24T20:42:37.952Z,67.90
2018-04-24T20:45:05.453Z,68.40
2018-04-24T20:47:32.971Z,68.50
2018-04-24T20:50:00.457Z,68.50
2018-04-24T20:52:27.939Z,68.60
2018-04-24T20:54:56.205Z,69.60
2018-04-24T20:57:23.680Z,69.60
2018-04-24T20:59:51.173Z,69.90
2018-04-24T21:02:18.661Z,70.40
2018-04-24T21:04:46.153Z,70.20
2018-04-24T21:07:13.645Z,70.70
2018-04-24T21:09:41.122Z,70.90
2018-04-24T21:12:08.616Z,70.90
2018-04-24T21:14:36.858Z,71.90
2018-04-24T21:17:04.354Z,71.80
2018-04-24T21:19:31.837Z,71.60
2018-04-24T21:21:59.333Z,71.30
2018-04-24T21:24:26.813Z,71.60
2018-04-24T21:26:54.301Z,72.50
2018-04-24T21:29:21.773Z,72.80
2018-04-24T21:31:49.265Z,72.70
2018-04-24T21:34:16.746Z,72.60
2018-04-24T21:36:44.246Z,72.50
2018-04-24T21:39:11.725Z,73.00
2018-04-24T21:41:39.232Z,73.80
2018-04-24T21:44:06.714Z,73.30
2018-04-24T21:46:34.213Z,73.00
2018-04-24T21:49:01.689Z,72.90
2018-04-24T21:51:29.184Z,72.60
2018-04-24T21:53:56.670Z,72.50
2018-04-24T21:56:24.165Z,72.90
2018-04-24T21:58:51.637Z,73.20
2018-04-24T22:01:19.132Z,73.30
2018-04-24T22:03:46.611Z,73.80
2018-04-24T22:06:14.102Z,74.20
2018-04-24T22:08:41.597Z,74.20
2018-04-24T22:11:09.073Z,74.90
2018-04-24T22:13:36.567Z,75.10
2018-04-24T22:16:04.054Z,75.00
2018-04-24T22:18:31.553Z,75.10
2018-04-24T22:20:59.040Z,75.00
2018-04-24T22:23:26.541Z,75.00
2018-04-24T22:25:54.021Z,75.20
2018-04-24T22:28:21.517Z,75.50
2018-04-24T22:30:48.995Z,76.10
2018-04-24T22:33:16.528Z,76.50
2018-04-24T22:35:43.977Z,76.40
2018-04-24T22:38:11.478Z,76.60
2018-04-24T22:40:38.960Z,76.70
2018-04-24T22:43:06.453Z,76.60
2018-04-24T22:45:33.932Z,76.60
2018-04-24T22:48:01.437Z,76.70
2018-04-24T22:50:28.923Z,76.80
2018-04-24T22:52:56.417Z,77.10
2018-04-24T22:55:23.889Z,77.40
2018-04-24T22:57:51.393Z,77.60
2018-04-24T23:00:18.869Z,77.40
2018-04-24T23:02:46.365Z,77.20
2018-04-24T23:05:13.853Z,76.80
2018-04-24T23:07:41.334Z,76.70
2018-04-24T23:10:08.337Z,76.40
2018-04-24T23:12:47.516Z,76.40
2018-04-24T23:15:26.734Z,76.40
2018-04-24T23:18:05.913Z,76.40
2018-04-24T23:20:32.905Z,76.90
2018-04-24T23:23:00.393Z,77.50
2018-04-24T23:25:27.873Z,77.70
2018-04-24T23:27:55.379Z,78.00
2018-04-24T23:30:22.857Z,78.00
2018-04-24T23:32:50.333Z,78.30
2018-04-24T23:35:17.825Z,78.50
2018-04-24T23:37:45.302Z,78.90
2018-04-24T23:40:12.801Z,79.20
2018-04-24T23:42:40.277Z,79.20
2018-04-24T23:45:07.780Z,79.30
2018-04-24T23:47:35.261Z,79.40
2018-04-24T23:50:02.753Z,79.40
2018-04-24T23:52:30.239Z,79.90
2018-04-24T23:54:57.733Z,80.10
2018-04-24T23:57:25.204Z,80.00
2018-04-24T23:59:52.708Z,79.80
